sensor_id;sensor_type;location;lat;lon;timestamp;pressure;altitude;pressure_sealevel;temperature;humidity
52469;BME280;38381;53.688;10.776;2023-08-06T00:02:27;100480.34;;;16.20;72.87
52469;BME280;38381;53.688;10.776;2023-08-06T00:07:27;100483.84;;;16.19;73.26
52469;BME280;38381;53.688;10.776;2023-08-06T00:12:28;100489.03;;;16.22;72.92
52469;BME280;38381;53.688;10.776;2023-08-06T00:17:28;100499.63;;;16.15;73.28
52469;BME280;38381;53.688;10.776;2023-08-06T00:22:28;100508.09;;;16.26;72.53
52469;BME280;38381;53.688;10.776;2023-08-06T00:27:29;100519.88;;;16.05;72.45
52469;BME280;38381;53.688;10.776;2023-08-06T00:32:29;100514.72;;;16.02;73.09
52469;BME280;38381;53.688;10.776;2023-08-06T00:37:30;100515.81;;;15.92;74.10
52469;BME280;38381;53.688;10.776;2023-08-06T00:42:30;100517.47;;;15.96;75.18
52469;BME280;38381;53.688;10.776;2023-08-06T00:47:31;100507.97;;;15.92;74.53
52469;BME280;38381;53.688;10.776;2023-08-06T00:52:31;100496.78;;;15.83;75.19
52469;BME280;38381;53.688;10.776;2023-08-06T00:57:32;100490.53;;;15.91;76.25
52469;BME280;38381;53.688;10.776;2023-08-06T01:02:32;100481.94;;;15.85;75.85
52469;BME280;38381;53.688;10.776;2023-08-06T01:07:48;100471.66;;;15.75;76.05
52469;BME280;38381;53.688;10.776;2023-08-06T01:13:08;100469.94;;;15.75;77.10
52469;BME280;38381;53.688;10.776;2023-08-06T01:18:11;100459.47;;;15.75;76.03
52469;BME280;38381;53.688;10.776;2023-08-06T01:23:12;100461.16;;;15.78;76.84
52469;BME280;38381;53.688;10.776;2023-08-06T01:28:25;100445.47;;;15.76;76.71
52469;BME280;38381;53.688;10.776;2023-08-06T01:33:28;100428.97;;;15.74;76.93
52469;BME280;38381;53.688;10.776;2023-08-06T01:38:29;100423.75;;;15.73;77.10
52469;BME280;38381;53.688;10.776;2023-08-06T01:43:29;100416.75;;;15.75;75.84
52469;BME280;38381;53.688;10.776;2023-08-06T01:48:30;100410.75;;;15.68;76.30
52469;BME280;38381;53.688;10.776;2023-08-06T01:53:30;100412.44;;;15.70;75.69
52469;BME280;38381;53.688;10.776;2023-08-06T01:58:31;100413.28;;;15.74;76.28
52469;BME280;38381;53.688;10.776;2023-08-06T02:03:32;100401.38;;;15.58;77.03
52469;BME280;38381;53.688;10.776;2023-08-06T02:08:32;100402.09;;;15.66;77.35
52469;BME280;38381;53.688;10.776;2023-08-06T02:13:33;100386.47;;;15.63;77.85
52469;BME280;38381;53.688;10.776;2023-08-06T02:18:33;100389.00;;;15.66;77.92
52469;BME280;38381;53.688;10.776;2023-08-06T02:23:34;100384.63;;;15.66;78.31
52469;BME280;38381;53.688;10.776;2023-08-06T02:28:34;100380.41;;;15.61;78.89
52469;BME280;38381;53.688;10.776;2023-08-06T02:33:34;100375.13;;;15.62;78.80
52469;BME280;38381;53.688;10.776;2023-08-06T02:38:35;100376.06;;;15.60;79.06
52469;BME280;38381;53.688;10.776;2023-08-06T02:43:35;100369.06;;;15.62;78.91
52469;BME280;38381;53.688;10.776;2023-08-06T02:48:36;100366.44;;;15.62;79.02
52469;BME280;38381;53.688;10.776;2023-08-06T02:53:36;100357.84;;;15.57;79.74
52469;BME280;38381;53.688;10.776;2023-08-06T02:58:37;100346.63;;;15.52;80.17
52469;BME280;38381;53.688;10.776;2023-08-06T03:03:37;100352.66;;;15.54;80.39
52469;BME280;38381;53.688;10.776;2023-08-06T03:08:37;100339.81;;;15.44;81.28
52469;BME280;38381;53.688;10.776;2023-08-06T03:13:38;100327.56;;;15.46;81.15
52469;BME280;38381;53.688;10.776;2023-08-06T03:18:38;100317.16;;;15.43;81.66
52469;BME280;38381;53.688;10.776;2023-08-06T03:23:39;100313.59;;;15.47;82.62
52469;BME280;38381;53.688;10.776;2023-08-06T03:28:39;100299.78;;;15.42;83.04
52469;BME280;38381;53.688;10.776;2023-08-06T03:33:40;100283.88;;;15.52;82.92
52469;BME280;38381;53.688;10.776;2023-08-06T03:38:40;100280.53;;;15.46;83.91
52469;BME280;38381;53.688;10.776;2023-08-06T03:43:41;100274.38;;;15.49;84.19
52469;BME280;38381;53.688;10.776;2023-08-06T03:48:41;100274.25;;;15.55;84.48
52469;BME280;38381;53.688;10.776;2023-08-06T03:53:41;100282.19;;;15.51;84.67
52469;BME280;38381;53.688;10.776;2023-08-06T03:58:42;100273.38;;;15.55;84.58
52469;BME280;38381;53.688;10.776;2023-08-06T04:03:42;100276.75;;;15.60;84.06
52469;BME280;38381;53.688;10.776;2023-08-06T04:08:43;100271.59;;;15.57;84.33
52469;BME280;38381;53.688;10.776;2023-08-06T04:13:43;100269.00;;;15.55;85.44
52469;BME280;38381;53.688;10.776;2023-08-06T04:18:44;100271.47;;;15.63;84.80
52469;BME280;38381;53.688;10.776;2023-08-06T04:23:46;100275.88;;;15.59;85.47
52469;BME280;38381;53.688;10.776;2023-08-06T04:28:46;100270.41;;;15.70;85.20
52469;BME280;38381;53.688;10.776;2023-08-06T04:33:46;100272.09;;;15.74;84.98
52469;BME280;38381;53.688;10.776;2023-08-06T04:38:47;100264.13;;;15.79;84.79
52469;BME280;38381;53.688;10.776;2023-08-06T04:43:47;100257.88;;;15.86;84.23
52469;BME280;38381;53.688;10.776;2023-08-06T04:48:48;100265.16;;;15.73;84.97
52469;BME280;38381;53.688;10.776;2023-08-06T04:53:48;100261.97;;;15.59;87.11
52469;BME280;38381;53.688;10.776;2023-08-06T04:58:49;100258.09;;;15.77;86.15
52469;BME280;38381;53.688;10.776;2023-08-06T05:03:50;100261.34;;;15.86;84.86
52469;BME280;38381;53.688;10.776;2023-08-06T05:08:50;100249.78;;;15.97;84.71
52469;BME280;38381;53.688;10.776;2023-08-06T05:13:50;100255.00;;;15.97;85.22
52469;BME280;38381;53.688;10.776;2023-08-06T05:18:51;100253.22;;;15.99;84.86
52469;BME280;38381;53.688;10.776;2023-08-06T05:23:52;100254.88;;;16.03;84.47
52469;BME280;38381;53.688;10.776;2023-08-06T05:28:52;100253.88;;;16.08;84.25
52469;BME280;38381;53.688;10.776;2023-08-06T05:33:53;100257.16;;;16.17;84.24
52469;BME280;38381;53.688;10.776;2023-08-06T05:38:53;100264.06;;;16.19;83.95
52469;BME280;38381;53.688;10.776;2023-08-06T05:43:54;100252.63;;;16.23;84.20
52469;BME280;38381;53.688;10.776;2023-08-06T05:48:54;100257.78;;;16.26;83.89
52469;BME280;38381;53.688;10.776;2023-08-06T05:53:54;100256.91;;;16.26;84.38
52469;BME280;38381;53.688;10.776;2023-08-06T05:58:55;100248.97;;;16.31;84.01
52469;BME280;38381;53.688;10.776;2023-08-06T06:03:55;100247.00;;;16.39;83.75
52469;BME280;38381;53.688;10.776;2023-08-06T06:08:56;100245.94;;;16.46;83.86
52469;BME280;38381;53.688;10.776;2023-08-06T06:13:56;100238.03;;;16.49;83.69
52469;BME280;38381;53.688;10.776;2023-08-06T06:18:57;100243.13;;;16.54;83.21
52469;BME280;38381;53.688;10.776;2023-08-06T06:23:57;100244.56;;;16.65;83.17
52469;BME280;38381;53.688;10.776;2023-08-06T06:28:58;100246.22;;;16.68;82.55
52469;BME280;38381;53.688;10.776;2023-08-06T06:33:58;100244.59;;;16.64;82.90
52469;BME280;38381;53.688;10.776;2023-08-06T06:38:59;100243.22;;;16.83;82.55
52469;BME280;38381;53.688;10.776;2023-08-06T06:43:59;100243.81;;;16.93;82.03
52469;BME280;38381;53.688;10.776;2023-08-06T06:48:59;100240.84;;;17.05;81.99
52469;BME280;38381;53.688;10.776;2023-08-06T06:54:00;100231.97;;;17.11;81.49
52469;BME280;38381;53.688;10.776;2023-08-06T06:59:00;100236.22;;;17.15;81.00
52469;BME280;38381;53.688;10.776;2023-08-06T07:04:01;100229.97;;;17.19;81.75
52469;BME280;38381;53.688;10.776;2023-08-06T07:09:05;100230.56;;;17.29;81.35
52469;BME280;38381;53.688;10.776;2023-08-06T07:14:07;100226.22;;;17.28;81.00
52469;BME280;38381;53.688;10.776;2023-08-06T07:19:08;100232.69;;;17.46;80.72
52469;BME280;38381;53.688;10.776;2023-08-06T07:24:08;100229.03;;;17.52;80.23
52469;BME280;38381;53.688;10.776;2023-08-06T07:29:09;100220.00;;;17.60;80.01
52469;BME280;38381;53.688;10.776;2023-08-06T07:34:09;100226.69;;;17.70;79.97
52469;BME280;38381;53.688;10.776;2023-08-06T07:39:09;100225.63;;;17.76;79.67
52469;BME280;38381;53.688;10.776;2023-08-06T07:44:10;100233.03;;;17.92;79.11
52469;BME280;38381;53.688;10.776;2023-08-06T07:49:11;100232.59;;;18.05;79.14
52469;BME280;38381;53.688;10.776;2023-08-06T07:54:11;100242.22;;;18.05;78.73
52469;BME280;38381;53.688;10.776;2023-08-06T07:59:12;100230.13;;;18.01;78.61
52469;BME280;38381;53.688;10.776;2023-08-06T08:04:12;100225.88;;;18.23;78.70
52469;BME280;38381;53.688;10.776;2023-08-06T08:09:15;100231.00;;;18.26;78.21
52469;BME280;38381;53.688;10.776;2023-08-06T08:14:16;100226.09;;;18.42;76.52
52469;BME280;38381;53.688;10.776;2023-08-06T08:19:16;100218.81;;;18.50;77.06
52469;BME280;38381;53.688;10.776;2023-08-06T08:24:17;100217.19;;;18.46;77.31
52469;BME280;38381;53.688;10.776;2023-08-06T08:29:20;100216.00;;;18.55;76.17
52469;BME280;38381;53.688;10.776;2023-08-06T08:34:21;100224.16;;;18.73;75.40
52469;BME280;38381;53.688;10.776;2023-08-06T08:39:21;100218.91;;;18.73;75.81
52469;BME280;38381;53.688;10.776;2023-08-06T08:44:22;100219.53;;;18.81;75.77
52469;BME280;38381;53.688;10.776;2023-08-06T08:49:24;100217.56;;;18.86;75.99
52469;BME280;38381;53.688;10.776;2023-08-06T08:54:25;100221.75;;;18.92;75.66
52469;BME280;38381;53.688;10.776;2023-08-06T08:59:27;100221.09;;;18.60;77.20
52469;BME280;38381;53.688;10.776;2023-08-06T09:04:29;100216.91;;;18.81;76.60
52469;BME280;38381;53.688;10.776;2023-08-06T09:09:34;100200.69;;;18.93;75.95
52469;BME280;38381;53.688;10.776;2023-08-06T09:14:38;100200.03;;;18.86;76.70
52469;BME280;38381;53.688;10.776;2023-08-06T09:19:42;100203.31;;;18.93;76.06
52469;BME280;38381;53.688;10.776;2023-08-06T09:24:45;100201.59;;;19.16;76.04
52469;BME280;38381;53.688;10.776;2023-08-06T09:29:46;100198.47;;;19.28;74.80
52469;BME280;38381;53.688;10.776;2023-08-06T09:34:47;100192.19;;;19.32;75.77
52469;BME280;38381;53.688;10.776;2023-08-06T09:39:47;100192.06;;;19.35;75.92
52469;BME280;38381;53.688;10.776;2023-08-06T09:44:48;100189.56;;;19.54;75.31
52469;BME280;38381;53.688;10.776;2023-08-06T09:49:48;100201.25;;;19.69;73.88
52469;BME280;38381;53.688;10.776;2023-08-06T09:54:52;100195.88;;;19.72;74.52
52469;BME280;38381;53.688;10.776;2023-08-06T09:59:53;100184.06;;;19.82;73.29
52469;BME280;38381;53.688;10.776;2023-08-06T10:04:54;100173.97;;;19.94;72.29
52469;BME280;38381;53.688;10.776;2023-08-06T10:09:55;100173.81;;;19.97;73.17
52469;BME280;38381;53.688;10.776;2023-08-06T10:14:59;100162.50;;;19.95;73.54
52469;BME280;38381;53.688;10.776;2023-08-06T10:20:04;100158.50;;;20.06;72.63
52469;BME280;38381;53.688;10.776;2023-08-06T10:25:06;100161.59;;;19.96;73.00
52469;BME280;38381;53.688;10.776;2023-08-06T10:30:27;100155.47;;;19.95;72.76
52469;BME280;38381;53.688;10.776;2023-08-06T10:35:35;100153.63;;;19.97;72.05
52469;BME280;38381;53.688;10.776;2023-08-06T10:40:38;100143.81;;;20.01;72.43
52469;BME280;38381;53.688;10.776;2023-08-06T10:45:49;100139.03;;;19.90;73.25
52469;BME280;38381;53.688;10.776;2023-08-06T10:50:50;100135.41;;;19.93;73.24
52469;BME280;38381;53.688;10.776;2023-08-06T10:55:50;100137.13;;;20.14;73.93
52469;BME280;38381;53.688;10.776;2023-08-06T11:00:51;100131.06;;;20.12;73.04
52469;BME280;38381;53.688;10.776;2023-08-06T11:05:52;100121.44;;;20.11;73.61
52469;BME280;38381;53.688;10.776;2023-08-06T11:10:53;100121.66;;;19.86;73.83
52469;BME280;38381;53.688;10.776;2023-08-06T11:15:53;100119.47;;;19.75;74.29
52469;BME280;38381;53.688;10.776;2023-08-06T11:20:54;100124.47;;;19.81;74.71
52469;BME280;38381;53.688;10.776;2023-08-06T11:25:56;100124.28;;;19.64;75.65
52469;BME280;38381;53.688;10.776;2023-08-06T11:30:57;100116.78;;;19.33;76.70
52469;BME280;38381;53.688;10.776;2023-08-06T11:36:01;100118.06;;;19.44;77.53
52469;BME280;38381;53.688;10.776;2023-08-06T11:41:01;100116.09;;;19.49;76.75
52469;BME280;38381;53.688;10.776;2023-08-06T11:46:02;100106.91;;;19.60;76.45
52469;BME280;38381;53.688;10.776;2023-08-06T11:51:02;100101.13;;;19.29;78.01
52469;BME280;38381;53.688;10.776;2023-08-06T11:56:05;100096.53;;;19.57;77.90
52469;BME280;38381;53.688;10.776;2023-08-06T12:01:05;100085.81;;;19.61;77.86
52469;BME280;38381;53.688;10.776;2023-08-06T12:06:06;100091.44;;;19.74;77.48
52469;BME280;38381;53.688;10.776;2023-08-06T12:11:07;100086.72;;;19.82;77.84
52469;BME280;38381;53.688;10.776;2023-08-06T12:16:07;100079.47;;;19.87;76.24
52469;BME280;38381;53.688;10.776;2023-08-06T12:21:08;100078.44;;;19.92;77.02
52469;BME280;38381;53.688;10.776;2023-08-06T12:26:08;100069.34;;;19.78;74.67
52469;BME280;38381;53.688;10.776;2023-08-06T12:31:09;100066.97;;;19.93;74.63
52469;BME280;38381;53.688;10.776;2023-08-06T12:36:09;100066.31;;;19.87;74.12
52469;BME280;38381;53.688;10.776;2023-08-06T12:41:10;100069.06;;;19.84;72.16
52469;BME280;38381;53.688;10.776;2023-08-06T12:46:10;100064.47;;;19.89;70.91
52469;BME280;38381;53.688;10.776;2023-08-06T12:51:12;100065.91;;;19.97;70.71
52469;BME280;38381;53.688;10.776;2023-08-06T12:56:12;100068.84;;;20.09;69.62
52469;BME280;38381;53.688;10.776;2023-08-06T13:01:12;100075.72;;;19.93;69.15
52469;BME280;38381;53.688;10.776;2023-08-06T13:06:13;100084.22;;;20.00;67.93
52469;BME280;38381;53.688;10.776;2023-08-06T13:11:13;100073.16;;;20.12;67.90
52469;BME280;38381;53.688;10.776;2023-08-06T13:16:14;100072.13;;;19.96;66.18
52469;BME280;38381;53.688;10.776;2023-08-06T13:21:14;100065.16;;;20.14;66.75
52469;BME280;38381;53.688;10.776;2023-08-06T13:26:15;100069.28;;;20.40;66.00
52469;BME280;38381;53.688;10.776;2023-08-06T13:31:18;100066.84;;;20.35;65.08
52469;BME280;38381;53.688;10.776;2023-08-06T13:36:18;100073.34;;;20.47;64.36
52469;BME280;38381;53.688;10.776;2023-08-06T13:41:19;100065.53;;;20.64;62.75
52469;BME280;38381;53.688;10.776;2023-08-06T13:46:19;100070.28;;;20.56;62.59
52469;BME280;38381;53.688;10.776;2023-08-06T13:51:20;100067.09;;;20.68;62.82
52469;BME280;38381;53.688;10.776;2023-08-06T13:56:20;100068.66;;;20.54;61.77
52469;BME280;38381;53.688;10.776;2023-08-06T14:01:20;100074.38;;;20.63;61.47
52469;BME280;38381;53.688;10.776;2023-08-06T14:06:21;100074.91;;;20.51;60.05
52469;BME280;38381;53.688;10.776;2023-08-06T14:11:22;100072.97;;;20.55;60.92
52469;BME280;38381;53.688;10.776;2023-08-06T14:16:22;100071.66;;;20.65;61.41
52469;BME280;38381;53.688;10.776;2023-08-06T14:21:22;100069.31;;;20.59;61.27
52469;BME280;38381;53.688;10.776;2023-08-06T14:26:23;100078.09;;;20.59;61.58
52469;BME280;38381;53.688;10.776;2023-08-06T14:31:23;100069.47;;;20.35;60.80
52469;BME280;38381;53.688;10.776;2023-08-06T14:36:24;100071.91;;;20.40;61.15
52469;BME280;38381;53.688;10.776;2023-08-06T14:41:24;100073.41;;;20.26;62.06
52469;BME280;38381;53.688;10.776;2023-08-06T14:46:25;100070.00;;;20.43;62.18
52469;BME280;38381;53.688;10.776;2023-08-06T14:51:25;100068.34;;;20.41;61.93
52469;BME280;38381;53.688;10.776;2023-08-06T14:56:26;100067.91;;;20.50;61.52
52469;BME280;38381;53.688;10.776;2023-08-06T15:01:26;100069.22;;;20.41;61.66
52469;BME280;38381;53.688;10.776;2023-08-06T15:06:27;100066.34;;;20.46;60.88
52469;BME280;38381;53.688;10.776;2023-08-06T15:11:27;100059.69;;;20.39;60.74
52469;BME280;38381;53.688;10.776;2023-08-06T15:16:27;100061.00;;;20.28;60.62
52469;BME280;38381;53.688;10.776;2023-08-06T15:21:28;100075.03;;;20.48;61.17
52469;BME280;38381;53.688;10.776;2023-08-06T15:26:28;100074.03;;;20.50;60.53
52469;BME280;38381;53.688;10.776;2023-08-06T15:31:38;100079.50;;;20.27;60.90
52469;BME280;38381;53.688;10.776;2023-08-06T15:36:39;100066.91;;;20.34;59.77
52469;BME280;38381;53.688;10.776;2023-08-06T15:41:39;100075.03;;;20.29;60.69
52469;BME280;38381;53.688;10.776;2023-08-06T15:46:40;100074.69;;;20.37;59.09
52469;BME280;38381;53.688;10.776;2023-08-06T15:51:41;100085.91;;;20.21;59.66
52469;BME280;38381;53.688;10.776;2023-08-06T15:56:41;100089.22;;;20.06;59.61
52469;BME280;38381;53.688;10.776;2023-08-06T16:01:42;100077.22;;;20.19;59.31
52469;BME280;38381;53.688;10.776;2023-08-06T16:06:42;100066.03;;;20.14;60.13
52469;BME280;38381;53.688;10.776;2023-08-06T16:11:44;100071.31;;;20.14;60.39
52469;BME280;38381;53.688;10.776;2023-08-06T16:16:46;100078.53;;;20.09;60.50
52469;BME280;38381;53.688;10.776;2023-08-06T16:21:46;100075.59;;;19.96;60.87
52469;BME280;38381;53.688;10.776;2023-08-06T16:26:47;100083.16;;;19.83;62.04
52469;BME280;38381;53.688;10.776;2023-08-06T16:31:47;100087.75;;;19.78;63.59
52469;BME280;38381;53.688;10.776;2023-08-06T16:36:47;100083.69;;;19.71;64.31
52469;BME280;38381;53.688;10.776;2023-08-06T16:41:48;100082.84;;;19.48;64.87
52469;BME280;38381;53.688;10.776;2023-08-06T16:46:48;100079.69;;;19.40;66.22
52469;BME280;38381;53.688;10.776;2023-08-06T16:51:49;100084.94;;;19.40;66.03
52469;BME280;38381;53.688;10.776;2023-08-06T16:56:49;100074.22;;;19.45;66.74
52469;BME280;38381;53.688;10.776;2023-08-06T17:01:50;100083.09;;;19.42;67.15
52469;BME280;38381;53.688;10.776;2023-08-06T17:06:51;100079.28;;;19.27;67.08
52469;BME280;38381;53.688;10.776;2023-08-06T17:11:51;100087.56;;;19.18;67.40
52469;BME280;38381;53.688;10.776;2023-08-06T17:16:52;100090.84;;;19.23;67.38
52469;BME280;38381;53.688;10.776;2023-08-06T17:21:52;100091.03;;;19.19;67.74
52469;BME280;38381;53.688;10.776;2023-08-06T17:26:53;100091.34;;;19.11;68.41
52469;BME280;38381;53.688;10.776;2023-08-06T17:31:58;100085.03;;;19.15;67.62
52469;BME280;38381;53.688;10.776;2023-08-06T17:36:59;100088.91;;;19.06;67.73
52469;BME280;38381;53.688;10.776;2023-08-06T17:42:00;100087.31;;;19.02;67.87
52469;BME280;38381;53.688;10.776;2023-08-06T17:47:03;100096.22;;;18.98;67.57
52469;BME280;38381;53.688;10.776;2023-08-06T17:52:04;100084.38;;;18.88;68.09
52469;BME280;38381;53.688;10.776;2023-08-06T17:57:05;100082.53;;;18.90;68.13
52469;BME280;38381;53.688;10.776;2023-08-06T18:02:06;100090.56;;;18.87;68.94
52469;BME280;38381;53.688;10.776;2023-08-06T18:07:06;100089.06;;;18.80;69.30
52469;BME280;38381;53.688;10.776;2023-08-06T18:12:07;100089.25;;;18.74;69.62
52469;BME280;38381;53.688;10.776;2023-08-06T18:17:11;100098.06;;;18.49;71.06
52469;BME280;38381;53.688;10.776;2023-08-06T18:22:11;100093.50;;;18.54;71.41
52469;BME280;38381;53.688;10.776;2023-08-06T18:27:12;100103.53;;;18.43;72.28
52469;BME280;38381;53.688;10.776;2023-08-06T18:32:17;100105.09;;;18.48;71.78
52469;BME280;38381;53.688;10.776;2023-08-06T18:37:17;100107.13;;;18.40;72.21
52469;BME280;38381;53.688;10.776;2023-08-06T18:42:18;100113.59;;;18.32;72.38
52469;BME280;38381;53.688;10.776;2023-08-06T18:47:18;100105.75;;;18.30;72.40
52469;BME280;38381;53.688;10.776;2023-08-06T18:52:19;100105.06;;;18.25;72.04
52469;BME280;38381;53.688;10.776;2023-08-06T18:57:20;100097.34;;;18.20;72.19
52469;BME280;38381;53.688;10.776;2023-08-06T19:02:22;100097.34;;;18.20;72.97
52469;BME280;38381;53.688;10.776;2023-08-06T19:07:23;100091.66;;;18.09;73.59
52469;BME280;38381;53.688;10.776;2023-08-06T19:12:24;100093.00;;;17.94;73.75
52469;BME280;38381;53.688;10.776;2023-08-06T19:17:24;100086.03;;;17.95;73.71
52469;BME280;38381;53.688;10.776;2023-08-06T19:22:24;100092.06;;;17.97;74.43
52469;BME280;38381;53.688;10.776;2023-08-06T19:27:25;100079.97;;;17.93;74.09
52469;BME280;38381;53.688;10.776;2023-08-06T19:32:25;100080.28;;;17.82;75.30
52469;BME280;38381;53.688;10.776;2023-08-06T19:37:26;100071.56;;;17.81;75.16
52469;BME280;38381;53.688;10.776;2023-08-06T19:42:27;100064.53;;;17.82;74.47
52469;BME280;38381;53.688;10.776;2023-08-06T19:47:28;100064.72;;;17.77;74.89
52469;BME280;38381;53.688;10.776;2023-08-06T19:52:28;100058.06;;;17.67;75.61
52469;BME280;38381;53.688;10.776;2023-08-06T19:57:28;100056.50;;;17.61;76.00
52469;BME280;38381;53.688;10.776;2023-08-06T20:02:29;100062.06;;;17.52;76.53
52469;BME280;38381;53.688;10.776;2023-08-06T20:07:29;100058.91;;;17.42;76.79
52469;BME280;38381;53.688;10.776;2023-08-06T20:12:30;100048.44;;;17.41;77.52
52469;BME280;38381;53.688;10.776;2023-08-06T20:17:30;100047.94;;;17.31;77.69
52469;BME280;38381;53.688;10.776;2023-08-06T20:22:31;100050.34;;;17.37;77.95
52469;BME280;38381;53.688;10.776;2023-08-06T20:27:31;100052.44;;;17.26;78.58
52469;BME280;38381;53.688;10.776;2023-08-06T20:32:32;100053.38;;;17.25;78.75
52469;BME280;38381;53.688;10.776;2023-08-06T20:37:32;100056.28;;;17.16;78.55
52469;BME280;38381;53.688;10.776;2023-08-06T20:42:33;100055.78;;;17.04;77.56
52469;BME280;38381;53.688;10.776;2023-08-06T20:47:33;100069.69;;;17.06;76.51
52469;BME280;38381;53.688;10.776;2023-08-06T20:52:34;100070.00;;;16.96;76.93
52469;BME280;38381;53.688;10.776;2023-08-06T20:57:34;100069.09;;;16.97;76.63
52469;BME280;38381;53.688;10.776;2023-08-06T21:02:35;100059.88;;;16.83;77.13
52469;BME280;38381;53.688;10.776;2023-08-06T21:07:35;100059.00;;;16.84;76.89
52469;BME280;38381;53.688;10.776;2023-08-06T21:12:36;100063.28;;;16.87;77.19
52469;BME280;38381;53.688;10.776;2023-08-06T21:17:37;100061.69;;;16.81;77.61
52469;BME280;38381;53.688;10.776;2023-08-06T21:22:38;100060.13;;;16.76;77.94
52469;BME280;38381;53.688;10.776;2023-08-06T21:27:38;100069.47;;;16.84;77.56
52469;BME280;38381;53.688;10.776;2023-08-06T21:32:40;100065.03;;;16.86;77.48
52469;BME280;38381;53.688;10.776;2023-08-06T21:37:40;100066.25;;;16.75;78.44
52469;BME280;38381;53.688;10.776;2023-08-06T21:42:43;100055.88;;;16.72;78.73
52469;BME280;38381;53.688;10.776;2023-08-06T21:47:45;100060.34;;;16.68;78.93
52469;BME280;38381;53.688;10.776;2023-08-06T21:52:46;100057.97;;;16.59;79.26
52469;BME280;38381;53.688;10.776;2023-08-06T21:57:48;100056.88;;;16.67;79.19
52469;BME280;38381;53.688;10.776;2023-08-06T22:02:49;100058.03;;;16.57;79.35
52469;BME280;38381;53.688;10.776;2023-08-06T22:07:49;100048.59;;;16.52;80.20
52469;BME280;38381;53.688;10.776;2023-08-06T22:12:50;100043.41;;;16.50;79.81
52469;BME280;38381;53.688;10.776;2023-08-06T22:17:50;100050.22;;;16.56;80.08
52469;BME280;38381;53.688;10.776;2023-08-06T22:22:51;100060.22;;;16.43;80.57
52469;BME280;38381;53.688;10.776;2023-08-06T22:27:51;100048.81;;;16.44;80.25
52469;BME280;38381;53.688;10.776;2023-08-06T22:32:52;100061.03;;;16.45;80.36
52469;BME280;38381;53.688;10.776;2023-08-06T22:37:53;100063.75;;;16.40;80.46
52469;BME280;38381;53.688;10.776;2023-08-06T22:42:53;100051.13;;;16.25;80.67
52469;BME280;38381;53.688;10.776;2023-08-06T22:47:54;100048.53;;;16.23;80.97
52469;BME280;38381;53.688;10.776;2023-08-06T22:52:54;100050.34;;;16.21;80.93
52469;BME280;38381;53.688;10.776;2023-08-06T22:57:54;100038.19;;;16.20;80.92
52469;BME280;38381;53.688;10.776;2023-08-06T23:02:55;100031.94;;;16.24;80.85
52469;BME280;38381;53.688;10.776;2023-08-06T23:07:55;100029.50;;;16.18;81.24
52469;BME280;38381;53.688;10.776;2023-08-06T23:12:56;100037.44;;;16.15;80.98
52469;BME280;38381;53.688;10.776;2023-08-06T23:17:56;100033.22;;;16.09;81.21
52469;BME280;38381;53.688;10.776;2023-08-06T23:22:57;100035.97;;;16.05;81.77
52469;BME280;38381;53.688;10.776;2023-08-06T23:27:57;100035.84;;;16.09;81.42
52469;BME280;38381;53.688;10.776;2023-08-06T23:32:57;100039.34;;;16.10;81.13
52469;BME280;38381;53.688;10.776;2023-08-06T23:37:58;100036.78;;;16.07;81.66
52469;BME280;38381;53.688;10.776;2023-08-06T23:42:58;100045.75;;;15.98;81.18
52469;BME280;38381;53.688;10.776;2023-08-06T23:47:59;100041.34;;;16.00;81.37
52469;BME280;38381;53.688;10.776;2023-08-06T23:52:59;100042.28;;;15.98;81.53
52469;BME280;38381;53.688;10.776;2023-08-06T23:58:00;100042.53;;;15.88;81.73
